createdAt,value
2023-01-13T00:00:06.902Z,93989.34
2023-01-13T00:01:10.758Z,93991.19
2023-01-13T00:02:07.300Z,93996.38
2023-01-13T00:03:03.847Z,93995.28
2023-01-13T00:04:01.136Z,93992.25
2023-01-13T00:04:57.770Z,93991.88
2023-01-13T00:05:54.285Z,93996.25
2023-01-13T00:06:50.798Z,93996.59
2023-01-13T00:07:49.257Z,93994.25
2023-01-13T00:08:48.410Z,93997.38
2023-01-13T00:09:44.867Z,93994.53
2023-01-13T00:10:41.315Z,93992.56
2023-01-13T00:11:37.806Z,93996.66
2023-01-13T00:12:34.264Z,93998.03
2023-01-13T00:13:33.001Z,94002.06
2023-01-13T00:14:30.202Z,93997.88
2023-01-13T00:15:26.785Z,93996.94
2023-01-13T00:16:23.337Z,93998.09
2023-01-13T00:17:19.807Z,93997.03
2023-01-13T00:18:16.233Z,93993.25
2023-01-13T00:19:12.738Z,93997.16
2023-01-13T00:20:10.122Z,93999.66
2023-01-13T00:21:07.959Z,93994.69
2023-01-13T00:22:04.457Z,93999.59
2023-01-13T00:23:01.462Z,93995.19
2023-01-13T00:23:57.909Z,94003.88
2023-01-13T00:24:54.473Z,94004.41
2023-01-13T00:25:50.912Z,94002.03
2023-01-13T00:26:47.625Z,94004.13
2023-01-13T00:27:44.117Z,94003.00
2023-01-13T00:28:40.588Z,94002.81
2023-01-13T00:29:37.035Z,94002.03
2023-01-13T00:30:34.187Z,94001.22
2023-01-13T00:31:30.758Z,94001.22
2023-01-13T00:32:27.654Z,94004.06
2023-01-13T00:33:24.420Z,94008.53
2023-01-13T00:34:21.002Z,94005.06
2023-01-13T00:35:17.462Z,94007.47
2023-01-13T00:36:14.909Z,94007.59
2023-01-13T00:37:14.667Z,94011.31
2023-01-13T00:38:11.096Z,94005.06
2023-01-13T00:39:07.529Z,94007.47
2023-01-13T00:40:04.820Z,94008.25
2023-01-13T00:41:02.568Z,94002.38
2023-01-13T00:42:17.809Z,94000.81
2023-01-13T00:43:23.062Z,94001.31
2023-01-13T00:44:19.578Z,93997.31
2023-01-13T00:45:16.104Z,94003.56
2023-01-13T00:46:13.826Z,94006.69
2023-01-13T00:47:10.317Z,94002.03
2023-01-13T00:48:06.787Z,94001.66
2023-01-13T00:49:03.269Z,93997.97
2023-01-13T00:49:59.777Z,93998.75
2023-01-13T00:50:56.994Z,93995.09
2023-01-13T00:51:53.436Z,93998.53
2023-01-13T00:52:49.908Z,94000.66
2023-01-13T00:53:48.012Z,94004.56
2023-01-13T00:54:44.514Z,93994.69
2023-01-13T00:55:40.972Z,93993.41
2023-01-13T00:56:40.526Z,93983.38
2023-01-13T00:57:37.501Z,93992.09
2023-01-13T00:58:34.833Z,93990.78
2023-01-13T00:59:31.253Z,93988.59
2023-01-13T01:00:27.712Z,93997.53
2023-01-13T01:01:24.693Z,93994.31
2023-01-13T01:02:21.315Z,93995.63
2023-01-13T01:03:17.812Z,93991.97
2023-01-13T01:04:14.233Z,94000.13
2023-01-13T01:05:11.098Z,93988.81
2023-01-13T01:06:07.538Z,93984.84
2023-01-13T01:07:03.989Z,93990.63
2023-01-13T01:08:00.477Z,93997.16
2023-01-13T01:08:57.190Z,93989.84
2023-01-13T01:09:53.685Z,93996.88
2023-01-13T01:10:50.180Z,93994.13
2023-01-13T01:11:46.614Z,93990.72
2023-01-13T01:12:43.159Z,93994.13
2023-01-13T01:13:39.742Z,93985.72
2023-01-13T01:14:36.216Z,93984.22
2023-01-13T01:15:32.829Z,93984.44
2023-01-13T01:16:30.178Z,93974.56
2023-01-13T01:17:27.912Z,93983.38
2023-01-13T01:18:24.377Z,93980.75
2023-01-13T01:19:20.808Z,93982.38
2023-01-13T01:20:17.272Z,93981.09
2023-01-13T01:21:14.522Z,93981.09
2023-01-13T01:22:11.025Z,93981.41
2023-01-13T01:23:07.455Z,93979.13
2023-01-13T01:24:04.398Z,93983.78
2023-01-13T01:25:00.974Z,93980.81
2023-01-13T01:26:01.380Z,93975.06
2023-01-13T01:26:57.898Z,93985.38
2023-01-13T01:27:54.385Z,93979.03
2023-01-13T01:28:50.986Z,93981.69
2023-01-13T01:29:47.700Z,93979.63
2023-01-13T01:30:44.170Z,93978.06
2023-01-13T01:31:40.638Z,93974.41
2023-01-13T01:32:37.097Z,93980.19
2023-01-13T01:33:33.662Z,93968.00
2023-01-13T01:34:30.223Z,93969.06
2023-01-13T01:35:26.719Z,93973.34
2023-01-13T01:36:26.178Z,93971.78
2023-01-13T01:37:22.648Z,93966.75
2023-01-13T01:38:21.238Z,93975.22
2023-01-13T01:39:17.717Z,93966.47
2023-01-13T01:40:14.205Z,93969.94
2023-01-13T01:41:31.678Z,93968.38
2023-01-13T01:42:46.568Z,93969.72
2023-01-13T01:44:04.074Z,93962.63
2023-01-13T01:45:12.139Z,93968.72
2023-01-13T01:46:08.622Z,93960.50
2023-01-13T01:47:05.240Z,93965.25
2023-01-13T01:48:04.375Z,93964.09
2023-01-13T01:49:03.497Z,93962.53
2023-01-13T01:50:02.020Z,93967.88
2023-01-13T01:50:58.485Z,93961.56
2023-01-13T01:52:02.524Z,93965.03
2023-01-13T01:53:02.662Z,93963.75
2023-01-13T01:54:02.077Z,93962.88
2023-01-13T01:55:16.419Z,93956.28
2023-01-13T01:56:12.976Z,93958.66
2023-01-13T01:57:10.241Z,93961.41
2023-01-13T01:58:21.887Z,93960.13
2023-01-13T01:59:18.687Z,93962.16
2023-01-13T02:00:15.414Z,93958.00
2023-01-13T02:01:12.592Z,93966.16
2023-01-13T02:02:09.611Z,93970.91
2023-01-13T02:03:07.335Z,93958.06
2023-01-13T02:04:11.102Z,93963.88
2023-01-13T02:05:07.722Z,93963.59
2023-01-13T02:06:04.276Z,93964.88
2023-01-13T02:07:01.419Z,93964.88
2023-01-13T02:07:59.030Z,93959.91
2023-01-13T02:08:55.617Z,93974.13
2023-01-13T02:09:52.881Z,93966.22
2023-01-13T02:10:53.017Z,93966.50
2023-01-13T02:12:07.781Z,93966.50
2023-01-13T02:13:06.340Z,93965.19
2023-01-13T02:14:02.864Z,93961.25
2023-01-13T02:15:04.593Z,93968.28
2023-01-13T02:16:10.081Z,93964.66
2023-01-13T02:17:15.393Z,93961.47
2023-01-13T02:18:11.944Z,93968.06
2023-01-13T02:19:08.380Z,93960.47
2023-01-13T02:20:07.902Z,93959.06
2023-01-13T02:21:19.719Z,93966.94
2023-01-13T02:22:22.518Z,93965.19
2023-01-13T02:23:37.455Z,93959.53
2023-01-13T02:24:53.905Z,93954.59
2023-01-13T02:26:03.398Z,93954.88
2023-01-13T02:27:06.025Z,93953.53
2023-01-13T02:28:12.704Z,93958.28
2023-01-13T02:29:49.918Z,93954.28
2023-01-13T02:31:28.599Z,93956.72
2023-01-13T02:32:27.819Z,93949.97
2023-01-13T02:33:27.306Z,93950.69
2023-01-13T02:34:33.872Z,93952.69
2023-01-13T02:35:39.553Z,93953.16
2023-01-13T02:36:44.836Z,93953.47
2023-01-13T02:37:45.569Z,93965.50
2023-01-13T02:38:50.223Z,93958.50
2023-01-13T02:39:59.621Z,93961.13
2023-01-13T02:41:36.252Z,93958.97
2023-01-13T02:42:52.139Z,93958.06
2023-01-13T02:44:09.314Z,93960.44
2023-01-13T02:45:06.026Z,93953.38
2023-01-13T02:46:05.268Z,93953.31
2023-01-13T02:47:01.858Z,93959.25
2023-01-13T02:47:59.448Z,93956.47
2023-01-13T02:48:57.979Z,93957.91
2023-01-13T02:50:00.427Z,93954.66
2023-01-13T02:50:59.879Z,93952.75
2023-01-13T02:52:00.480Z,93959.56
2023-01-13T02:53:03.431Z,93958.50
2023-01-13T02:54:06.609Z,93959.28
2023-01-13T02:55:08.293Z,93957.09
2023-01-13T02:56:05.888Z,93959.22
2023-01-13T02:57:03.020Z,93963.06
2023-01-13T02:58:01.130Z,93962.81
2023-01-13T02:58:57.952Z,93964.09
2023-01-13T02:59:55.702Z,93958.28
2023-01-13T03:00:52.532Z,93961.50
2023-01-13T03:01:50.272Z,93966.13
2023-01-13T03:02:48.122Z,93965.88
2023-01-13T03:03:44.889Z,93960.91
2023-01-13T03:04:49.015Z,93967.31
2023-01-13T03:05:47.737Z,93961.25
2023-01-13T03:06:59.744Z,93961.31
2023-01-13T03:08:17.869Z,93957.72
2023-01-13T03:09:15.073Z,93961.63
2023-01-13T03:10:31.899Z,93961.22
2023-01-13T03:11:32.686Z,93958.69
2023-01-13T03:12:52.408Z,93962.97
2023-01-13T03:14:13.101Z,93959.00
2023-01-13T03:15:16.106Z,93954.88
2023-01-13T03:16:31.511Z,93952.97
2023-01-13T03:17:40.153Z,93955.88
2023-01-13T03:18:52.568Z,93957.13
2023-01-13T03:19:49.080Z,93952.09
2023-01-13T03:20:54.266Z,93954.72
2023-01-13T03:21:56.956Z,93953.16
2023-01-13T03:23:05.333Z,93953.03
2023-01-13T03:24:13.895Z,93955.00
2023-01-13T03:25:22.669Z,93959.28
2023-01-13T03:26:45.499Z,93957.91
2023-01-13T03:27:45.139Z,93956.78
2023-01-13T03:28:49.043Z,93962.97
2023-01-13T03:29:50.868Z,93966.69
2023-01-13T03:30:53.613Z,93960.34
2023-01-13T03:31:56.185Z,93968.78
2023-01-13T03:32:55.823Z,93893.41
2023-01-13T03:33:56.332Z,93959.84
2023-01-13T03:34:55.680Z,93967.19
2023-01-13T03:35:55.594Z,93961.53
2023-01-13T03:36:54.389Z,93965.09
2023-01-13T03:37:54.394Z,93967.03
2023-01-13T03:38:53.190Z,93966.25
2023-01-13T03:39:53.213Z,93967.09
2023-01-13T03:40:54.884Z,93966.25
2023-01-13T03:41:57.279Z,93975.28
2023-01-13T03:43:14.270Z,93974.41
2023-01-13T03:44:34.135Z,93965.97
2023-01-13T03:45:32.060Z,93969.31
2023-01-13T03:47:04.247Z,93964.03
2023-01-13T03:48:03.064Z,93971.44
2023-01-13T03:49:03.099Z,93965.88
2023-01-13T03:50:02.443Z,93976.25
2023-01-13T03:51:04.959Z,93971.94
2023-01-13T03:52:04.161Z,93970.66
2023-01-13T03:53:15.759Z,93970.38
2023-01-13T03:54:14.197Z,93973.06
2023-01-13T03:55:15.777Z,93972.66
2023-01-13T03:56:15.747Z,93971.34
2023-01-13T03:57:14.589Z,93973.06
2023-01-13T03:58:31.323Z,93974.50
2023-01-13T03:59:31.083Z,93973.59
2023-01-13T04:00:31.794Z,93972.91
2023-01-13T04:01:42.477Z,93971.66
2023-01-13T04:03:00.793Z,93970.78
2023-01-13T04:04:01.896Z,93974.22
2023-01-13T04:05:00.010Z,93967.66
2023-01-13T04:06:00.045Z,93969.81
2023-01-13T04:07:19.566Z,93969.50
2023-01-13T04:08:21.724Z,93973.41
2023-01-13T04:09:23.604Z,93977.16
2023-01-13T04:10:23.821Z,93972.69
2023-01-13T04:11:40.549Z,93981.25
2023-01-13T04:13:00.896Z,93981.59
2023-01-13T04:13:58.217Z,93980.16
2023-01-13T04:14:55.905Z,93978.81
2023-01-13T04:15:52.529Z,93974.22
2023-01-13T04:16:49.209Z,93977.91
2023-01-13T04:17:45.655Z,93974.28
2023-01-13T04:18:42.138Z,93981.75
2023-01-13T04:19:38.575Z,93982.53
2023-01-13T04:20:37.876Z,93985.28
2023-01-13T04:21:35.190Z,93983.59
2023-01-13T04:22:31.678Z,93987.72
2023-01-13T04:23:28.685Z,93987.94
2023-01-13T04:24:25.333Z,93985.78
2023-01-13T04:25:21.798Z,93992.34
2023-01-13T04:26:19.721Z,93980.75
2023-01-13T04:27:16.217Z,93981.53
2023-01-13T04:28:13.208Z,93985.84
2023-01-13T04:29:09.757Z,93983.03
2023-01-13T04:30:06.909Z,93983.16
2023-01-13T04:31:03.484Z,93987.00
2023-01-13T04:31:59.990Z,93989.47
2023-01-13T04:32:56.535Z,93981.03
2023-01-13T04:33:52.985Z,93985.25
2023-01-13T04:34:49.537Z,93987.56
2023-01-13T04:35:46.563Z,93989.72
2023-01-13T04:36:43.650Z,93991.88
2023-01-13T04:37:40.193Z,93994.13
2023-01-13T04:38:36.909Z,93985.22
2023-01-13T04:39:33.428Z,93989.69
2023-01-13T04:40:29.940Z,93989.28
2023-01-13T04:41:26.385Z,93994.75
2023-01-13T04:42:22.905Z,93995.34
2023-01-13T04:43:19.461Z,93989.91
2023-01-13T04:44:15.959Z,93995.91
2023-01-13T04:45:12.822Z,93994.88
2023-01-13T04:46:09.332Z,93994.25
2023-01-13T04:47:05.792Z,93999.16
2023-01-13T04:48:02.530Z,93995.81
2023-01-13T04:48:59.075Z,93997.38
2023-01-13T04:49:55.901Z,93996.88
2023-01-13T04:50:52.403Z,93997.59
2023-01-13T04:51:48.921Z,93999.22
2023-01-13T04:52:48.750Z,93996.59
2023-01-13T04:53:46.840Z,93998.53
2023-01-13T04:54:44.464Z,94000.38
2023-01-13T04:55:40.919Z,94009.75
2023-01-13T04:56:37.417Z,94000.53
2023-01-13T04:57:35.027Z,93916.06
2023-01-13T04:58:31.518Z,93997.31
2023-01-13T04:59:27.998Z,93995.25
2023-01-13T05:00:24.525Z,94001.59
2023-01-13T05:01:21.561Z,94000.00
2023-01-13T05:02:21.224Z,93989.28
2023-01-13T05:03:18.752Z,93994.56
2023-01-13T05:04:15.642Z,93997.53
2023-01-13T05:05:12.360Z,93992.28
2023-01-13T05:06:08.902Z,94001.72
2023-01-13T05:07:05.659Z,93998.53
2023-01-13T05:08:02.136Z,93999.50
2023-01-13T05:08:58.685Z,93999.22
2023-01-13T05:09:55.216Z,94000.03
2023-01-13T05:10:51.810Z,94000.56
2023-01-13T05:12:06.645Z,94001.63
2023-01-13T05:13:21.764Z,93996.94
2023-01-13T05:14:36.630Z,94007.69
2023-01-13T05:15:51.977Z,94008.50
2023-01-13T05:17:02.609Z,94004.69
2023-01-13T05:17:59.797Z,94009.81
2023-01-13T05:18:56.405Z,94005.84
2023-01-13T05:19:52.991Z,94011.84
2023-01-13T05:20:49.952Z,94009.91
2023-01-13T05:22:04.853Z,94013.81
2023-01-13T05:23:19.855Z,94011.94
2023-01-13T05:24:34.717Z,94011.81
2023-01-13T05:25:31.386Z,94005.06
2023-01-13T05:26:27.839Z,94010.09
2023-01-13T05:27:24.279Z,94014.78
2023-01-13T05:28:20.891Z,94009.31
2023-01-13T05:29:17.334Z,94012.84
2023-01-13T05:30:14.282Z,94012.94
2023-01-13T05:31:12.132Z,94012.59
2023-01-13T05:32:09.051Z,94008.19
2023-01-13T05:33:05.529Z,94011.09
2023-01-13T05:34:02.015Z,94008.41
2023-01-13T05:34:58.475Z,94014.78
2023-01-13T05:35:54.970Z,94014.72
2023-01-13T05:36:51.502Z,94014.59
2023-01-13T05:37:48.337Z,94010.09
2023-01-13T05:38:44.793Z,94011.66
2023-01-13T05:39:59.820Z,94013.94
2023-01-13T05:41:17.119Z,94015.31
2023-01-13T05:42:32.070Z,94017.75
2023-01-13T05:43:29.111Z,94017.69
2023-01-13T05:44:25.680Z,94017.22
2023-01-13T05:45:22.300Z,94011.00
2023-01-13T05:46:18.766Z,94018.81
2023-01-13T05:47:15.189Z,94019.06
2023-01-13T05:48:11.591Z,94018.78
2023-01-13T05:49:08.102Z,94016.97
2023-01-13T05:50:05.186Z,94016.63
2023-01-13T05:51:02.369Z,94005.97
2023-01-13T05:51:58.862Z,94019.19
2023-01-13T05:52:55.371Z,94015.75
2023-01-13T05:53:52.375Z,94017.00
2023-01-13T05:54:48.836Z,94019.13
2023-01-13T05:55:45.405Z,94019.72
2023-01-13T05:56:41.906Z,94016.00
2023-01-13T05:57:38.396Z,94017.84
2023-01-13T05:58:34.909Z,94026.81
2023-01-13T05:59:31.352Z,94024.38
2023-01-13T06:00:27.838Z,94023.91
2023-01-13T06:01:24.343Z,94018.06
2023-01-13T06:02:20.936Z,94027.53
2023-01-13T06:03:20.104Z,94022.25
2023-01-13T06:04:16.742Z,94022.78
2023-01-13T06:05:13.237Z,94029.59
2023-01-13T06:06:09.707Z,94027.44
2023-01-13T06:07:06.223Z,94021.75
2023-01-13T06:08:03.851Z,94024.19
2023-01-13T06:09:00.274Z,94030.50
2023-01-13T06:09:56.722Z,94026.66
2023-01-13T06:10:53.260Z,94035.28
2023-01-13T06:11:49.736Z,94032.34
2023-01-13T06:12:46.177Z,94032.59
2023-01-13T06:13:43.414Z,94036.28
2023-01-13T06:14:43.116Z,94038.31
2023-01-13T06:15:39.626Z,94036.19
2023-01-13T06:16:36.240Z,94032.28
2023-01-13T06:17:32.786Z,94036.53
2023-01-13T06:18:29.383Z,94036.03
2023-01-13T06:19:25.971Z,94035.28
2023-01-13T06:20:22.701Z,94035.28
2023-01-13T06:21:19.359Z,94038.97
2023-01-13T06:22:17.300Z,94038.91
2023-01-13T06:23:13.980Z,94034.69
2023-01-13T06:24:10.943Z,94037.06
2023-01-13T06:25:14.133Z,94033.91
2023-01-13T06:26:16.199Z,94033.38
2023-01-13T06:27:14.546Z,94036.03
2023-01-13T06:28:11.155Z,94036.81
2023-01-13T06:29:09.124Z,94038.63
2023-01-13T06:30:05.851Z,94038.84
2023-01-13T06:31:04.718Z,94037.84
2023-01-13T06:32:03.625Z,94037.53
2023-01-13T06:33:02.571Z,94036.91
2023-01-13T06:34:02.816Z,94043.72
2023-01-13T06:35:05.304Z,94041.66
2023-01-13T06:36:04.486Z,94042.28
2023-01-13T06:37:01.547Z,94042.47
2023-01-13T06:38:00.853Z,94040.31
2023-01-13T06:38:58.841Z,94042.44
2023-01-13T06:39:58.604Z,94050.56
2023-01-13T06:40:55.285Z,94035.09
2023-01-13T06:42:12.755Z,94038.13
2023-01-13T06:43:16.599Z,94037.84
2023-01-13T06:44:13.706Z,94038.47
2023-01-13T06:45:10.466Z,94040.53
2023-01-13T06:46:06.970Z,94036.94
2023-01-13T06:47:04.029Z,94039.84
2023-01-13T06:48:00.784Z,94042.94
2023-01-13T06:48:57.249Z,94044.38
2023-01-13T06:49:53.702Z,94044.19
2023-01-13T06:50:50.226Z,94046.03
2023-01-13T06:51:46.687Z,94039.09
2023-01-13T06:52:43.396Z,94042.06
2023-01-13T06:53:39.912Z,94035.81
2023-01-13T06:54:36.431Z,94039.03
2023-01-13T06:55:33.354Z,94035.09
2023-01-13T06:56:29.863Z,94043.00
2023-01-13T06:57:26.354Z,94041.09
2023-01-13T06:58:22.874Z,94040.75
2023-01-13T06:59:19.361Z,94047.00
2023-01-13T07:00:16.133Z,94062.22
2023-01-13T07:01:12.695Z,94044.59
2023-01-13T07:02:09.328Z,94044.38
2023-01-13T07:03:13.483Z,94037.50
2023-01-13T07:04:13.754Z,94039.47
2023-01-13T07:05:10.394Z,94043.25
2023-01-13T07:06:07.067Z,94043.53
2023-01-13T07:07:03.584Z,94036.06
2023-01-13T07:08:00.138Z,94045.97
2023-01-13T07:08:56.667Z,94043.91
2023-01-13T07:09:53.090Z,94038.72
2023-01-13T07:10:49.700Z,94040.19
2023-01-13T07:11:46.823Z,94049.44
2023-01-13T07:13:02.147Z,94042.59
2023-01-13T07:14:17.119Z,94038.44
2023-01-13T07:15:19.330Z,94039.13
2023-01-13T07:16:15.838Z,94043.25
2023-01-13T07:17:12.339Z,94036.84
2023-01-13T07:18:08.813Z,94034.72
2023-01-13T07:19:05.244Z,94040.94
2023-01-13T07:20:01.759Z,94037.91
2023-01-13T07:20:59.389Z,94041.97
2023-01-13T07:21:55.889Z,94037.25
2023-01-13T07:22:55.552Z,94034.84
2023-01-13T07:23:52.263Z,94035.28
2023-01-13T07:24:48.709Z,94039.63
2023-01-13T07:25:45.195Z,94043.19
2023-01-13T07:26:41.816Z,94038.47
2023-01-13T07:27:38.552Z,94041.91
2023-01-13T07:28:35.406Z,94038.91
2023-01-13T07:29:32.169Z,94040.31
2023-01-13T07:30:28.699Z,94046.66
2023-01-13T07:31:26.066Z,94035.06
2023-01-13T07:32:22.607Z,94037.53
2023-01-13T07:33:19.222Z,94036.38
2023-01-13T07:34:15.795Z,94036.31
2023-01-13T07:35:12.292Z,94040.88
2023-01-13T07:36:09.197Z,94039.09
2023-01-13T07:37:05.721Z,94031.94
2023-01-13T07:38:02.278Z,94040.41
2023-01-13T07:39:02.052Z,94035.41
2023-01-13T07:39:58.492Z,94036.56
2023-01-13T07:40:55.080Z,94027.66
2023-01-13T07:42:10.374Z,94041.81
2023-01-13T07:43:25.303Z,94046.25
2023-01-13T07:44:21.838Z,94039.56
2023-01-13T07:45:18.281Z,94036.09
2023-01-13T07:46:15.015Z,94037.66
2023-01-13T07:47:11.589Z,94031.31
2023-01-13T07:48:08.058Z,94033.88
2023-01-13T07:49:04.923Z,94051.13
2023-01-13T07:50:01.388Z,94038.91
2023-01-13T07:51:01.568Z,94034.81
2023-01-13T07:51:57.997Z,94037.97
2023-01-13T07:52:57.695Z,94030.66
2023-01-13T07:53:54.384Z,94029.56
2023-01-13T07:54:50.922Z,94039.34
2023-01-13T07:55:47.599Z,94037.00
2023-01-13T07:56:44.073Z,94035.06
2023-01-13T07:57:40.731Z,94034.06
2023-01-13T07:58:37.682Z,94038.97
2023-01-13T07:59:34.220Z,94036.50
2023-01-13T08:00:30.740Z,94037.47
2023-01-13T08:01:28.165Z,94036.22
2023-01-13T08:02:25.050Z,94034.25
2023-01-13T08:03:22.080Z,94040.69
2023-01-13T08:04:18.690Z,94040.81
2023-01-13T08:05:15.296Z,94037.00
2023-01-13T08:06:12.181Z,94042.56
2023-01-13T08:07:08.761Z,94041.69
2023-01-13T08:08:05.319Z,94045.22
2023-01-13T08:09:01.877Z,94033.59
2023-01-13T08:09:58.360Z,94038.66
2023-01-13T08:10:54.864Z,94040.00
2023-01-13T08:12:13.777Z,94042.25
2023-01-13T08:13:20.278Z,94044.09
2023-01-13T08:14:16.954Z,94037.94
2023-01-13T08:15:13.526Z,94041.25
2023-01-13T08:16:11.094Z,94037.94
2023-01-13T08:17:08.127Z,94043.22
2023-01-13T08:18:04.621Z,94041.94
2023-01-13T08:19:01.107Z,94038.50
2023-01-13T08:19:57.646Z,94041.03
2023-01-13T08:20:54.315Z,94042.88
2023-01-13T08:21:50.764Z,94037.53
2023-01-13T08:22:47.290Z,94055.81
2023-01-13T08:23:44.596Z,94040.47
2023-01-13T08:24:41.098Z,94039.78
2023-01-13T08:25:37.624Z,94041.25
2023-01-13T08:26:34.148Z,94043.47
2023-01-13T08:27:30.622Z,94043.13
2023-01-13T08:28:27.208Z,94041.19
2023-01-13T08:29:23.739Z,94038.22
2023-01-13T08:30:20.528Z,94043.53
2023-01-13T08:31:20.093Z,94043.94
2023-01-13T08:32:16.820Z,94050.72
2023-01-13T08:33:13.373Z,94041.09
2023-01-13T08:34:09.854Z,94043.09
2023-01-13T08:35:06.782Z,94040.41
2023-01-13T08:36:04.404Z,94045.63
2023-01-13T08:37:00.906Z,94043.66
2023-01-13T08:37:58.019Z,94053.19
2023-01-13T08:38:54.618Z,94036.84
2023-01-13T08:39:51.137Z,94047.00
2023-01-13T08:40:47.669Z,94045.00
2023-01-13T08:41:56.603Z,94044.09
2023-01-13T08:42:55.063Z,94050.72
2023-01-13T08:43:53.452Z,94039.69
2023-01-13T08:44:49.917Z,94043.53
2023-01-13T08:45:46.570Z,94046.72
2023-01-13T08:46:43.763Z,94046.69
2023-01-13T08:47:40.306Z,94052.66
2023-01-13T08:48:37.100Z,94047.53
2023-01-13T08:49:33.619Z,94043.03
2023-01-13T08:50:30.099Z,94041.22
2023-01-13T08:51:26.650Z,94051.38
2023-01-13T08:52:23.320Z,94042.09
2023-01-13T08:53:20.121Z,94044.13
2023-01-13T08:54:17.333Z,94044.25
2023-01-13T08:55:13.924Z,94044.03
2023-01-13T08:56:11.848Z,94047.25
2023-01-13T08:57:08.445Z,94039.91
2023-01-13T08:58:15.237Z,94037.53
2023-01-13T08:59:13.655Z,94042.06
2023-01-13T09:00:10.562Z,94041.16
2023-01-13T09:01:08.785Z,94040.38
2023-01-13T09:02:12.739Z,94048.69
2023-01-13T09:03:09.357Z,94046.00
2023-01-13T09:04:06.209Z,94046.81
2023-01-13T09:05:04.037Z,94044.47
2023-01-13T09:06:00.511Z,94037.72
2023-01-13T09:06:57.183Z,94048.75
2023-01-13T09:07:53.654Z,94019.25
2023-01-13T09:08:50.230Z,94037.53
2023-01-13T09:09:46.721Z,94047.13
2023-01-13T09:10:43.271Z,94042.38
2023-01-13T09:12:00.604Z,94048.91
2023-01-13T09:13:12.151Z,94041.59
2023-01-13T09:14:08.741Z,94038.16
2023-01-13T09:15:06.409Z,94036.47
2023-01-13T09:16:02.963Z,94046.81
2023-01-13T09:17:00.002Z,94038.31
2023-01-13T09:17:56.497Z,94040.97
2023-01-13T09:18:52.955Z,94047.13
2023-01-13T09:19:50.635Z,94037.47
2023-01-13T09:20:47.144Z,94039.69
2023-01-13T09:21:43.687Z,94042.28
2023-01-13T09:22:40.783Z,94039.66
2023-01-13T09:23:37.260Z,94039.97
2023-01-13T09:24:33.868Z,94041.22
2023-01-13T09:25:30.901Z,94029.97
2023-01-13T09:26:27.374Z,94032.53
2023-01-13T09:27:24.029Z,94031.88
2023-01-13T09:28:20.525Z,94031.97
2023-01-13T09:29:17.316Z,94029.66
2023-01-13T09:30:14.062Z,94032.88
2023-01-13T09:31:10.553Z,94027.31
2023-01-13T09:32:07.279Z,94033.66
2023-01-13T09:33:22.566Z,94036.78
2023-01-13T09:34:38.507Z,94031.31
2023-01-13T09:35:36.077Z,94032.25
2023-01-13T09:36:32.617Z,94029.84
2023-01-13T09:37:30.933Z,94030.53
2023-01-13T09:38:27.537Z,94030.69
2023-01-13T09:39:24.142Z,94032.19
2023-01-13T09:40:22.786Z,94022.28
2023-01-13T09:41:38.667Z,94032.69
2023-01-13T09:43:11.283Z,94029.06
2023-01-13T09:44:10.213Z,94026.88
2023-01-13T09:45:09.074Z,94036.69
2023-01-13T09:46:32.422Z,94034.47
2023-01-13T09:47:34.814Z,94037.75
2023-01-13T09:48:51.979Z,94033.84
2023-01-13T09:49:48.956Z,94034.00
2023-01-13T09:50:48.391Z,94027.31
2023-01-13T09:51:48.803Z,94035.69
2023-01-13T09:52:45.319Z,94028.28
2023-01-13T09:53:51.033Z,94026.91
2023-01-13T09:55:11.488Z,94029.06
2023-01-13T09:56:10.564Z,94025.88
2023-01-13T09:57:13.211Z,94032.53
2023-01-13T09:58:15.122Z,94028.41
2023-01-13T09:59:12.276Z,94016.81
2023-01-13T10:00:13.934Z,94027.84
2023-01-13T10:01:24.054Z,94017.63
2023-01-13T10:02:20.516Z,94022.50
2023-01-13T10:03:21.720Z,94027.53
2023-01-13T10:04:18.539Z,94024.81
2023-01-13T10:05:20.831Z,94019.50
2023-01-13T10:06:19.857Z,94012.94
2023-01-13T10:07:16.573Z,94013.59
2023-01-13T10:08:24.576Z,94016.66
2023-01-13T10:09:24.204Z,94015.88
2023-01-13T10:10:42.120Z,94016.44
2023-01-13T10:11:59.127Z,94015.28
2023-01-13T10:13:14.128Z,94013.22
2023-01-13T10:14:10.650Z,94014.97
2023-01-13T10:15:13.444Z,94012.78
2023-01-13T10:16:19.113Z,94020.19
2023-01-13T10:17:21.145Z,94014.44
2023-01-13T10:18:36.075Z,94015.16
2023-01-13T10:19:43.995Z,94010.94
2023-01-13T10:20:56.084Z,94014.81
2023-01-13T10:22:02.963Z,94011.81
2023-01-13T10:23:02.427Z,94014.47
2023-01-13T10:24:03.950Z,94012.47
2023-01-13T10:25:26.730Z,94012.09
2023-01-13T10:26:26.966Z,94016.63
2023-01-13T10:27:27.925Z,94008.56
2023-01-13T10:28:25.462Z,94013.00
2023-01-13T10:29:26.365Z,94007.25
2023-01-13T10:30:32.434Z,94004.22
2023-01-13T10:31:29.073Z,94007.22
2023-01-13T10:32:25.673Z,94008.06
2023-01-13T10:33:26.947Z,93934.09
2023-01-13T10:34:25.836Z,94013.28
2023-01-13T10:35:43.177Z,94010.75
2023-01-13T10:36:46.766Z,94007.22
2023-01-13T10:37:55.486Z,94001.41
2023-01-13T10:38:52.340Z,94002.88
2023-01-13T10:39:49.228Z,93999.06
2023-01-13T10:40:50.288Z,93999.63
2023-01-13T10:41:46.742Z,93998.91
2023-01-13T10:42:43.230Z,93998.78
2023-01-13T10:43:39.894Z,93996.88
2023-01-13T10:44:47.356Z,93996.00
2023-01-13T10:45:52.698Z,93998.28
2023-01-13T10:46:54.052Z,93989.69
2023-01-13T10:48:05.322Z,94002.84
2023-01-13T10:49:03.543Z,93995.06
2023-01-13T10:50:00.013Z,93989.00
2023-01-13T10:50:56.627Z,93990.97
2023-01-13T10:51:53.083Z,93988.75
2023-01-13T10:53:00.231Z,93992.31
2023-01-13T10:54:01.787Z,93984.72
2023-01-13T10:54:58.475Z,93980.91
2023-01-13T10:55:59.681Z,93993.34
2023-01-13T10:57:18.329Z,93988.91
2023-01-13T10:58:18.941Z,93981.44
2023-01-13T10:59:23.384Z,93981.97
2023-01-13T11:00:27.731Z,93979.53
2023-01-13T11:01:26.167Z,93982.06
2023-01-13T11:02:30.867Z,93978.03
2023-01-13T11:03:35.486Z,93971.94
2023-01-13T11:04:36.869Z,93980.31
2023-01-13T11:05:33.738Z,93975.38
2023-01-13T11:06:31.075Z,93978.41
2023-01-13T11:07:28.436Z,93982.22
2023-01-13T11:08:26.658Z,93983.91
2023-01-13T11:09:25.241Z,93981.56
2023-01-13T11:10:21.971Z,93984.91
2023-01-13T11:11:27.841Z,93983.41
2023-01-13T11:12:30.935Z,93986.13
2023-01-13T11:14:03.901Z,93979.06
2023-01-13T11:15:05.940Z,93966.53
2023-01-13T11:16:14.262Z,93980.31
2023-01-13T11:17:16.268Z,93974.88
2023-01-13T11:18:35.982Z,93974.44
2023-01-13T11:19:33.661Z,93977.44
2023-01-13T11:20:33.874Z,93975.38
2023-01-13T11:21:36.660Z,93978.88
2023-01-13T11:22:37.099Z,93973.97
2023-01-13T11:23:42.467Z,93976.34
2023-01-13T11:24:40.087Z,93986.00
2023-01-13T11:25:44.012Z,93977.13
2023-01-13T11:27:07.501Z,93972.72
2023-01-13T11:28:06.575Z,93971.25
2023-01-13T11:29:11.294Z,93977.63
2023-01-13T11:30:16.377Z,93970.00
2023-01-13T11:31:12.979Z,93972.78
2023-01-13T11:32:12.233Z,93963.28
2023-01-13T11:33:15.192Z,93969.53
2023-01-13T11:34:25.529Z,93967.66
2023-01-13T11:35:22.392Z,93968.28
2023-01-13T11:36:24.962Z,93968.41
2023-01-13T11:37:24.491Z,93961.88
2023-01-13T11:38:34.046Z,93963.91
2023-01-13T11:39:48.769Z,93966.56
2023-01-13T11:40:49.479Z,93959.91
2023-01-13T11:42:12.816Z,93964.25
2023-01-13T11:43:32.303Z,93953.78
2023-01-13T11:44:34.332Z,93958.19
2023-01-13T11:45:53.868Z,93956.16
2023-01-13T11:46:51.590Z,93958.19
2023-01-13T11:47:49.551Z,93958.66
2023-01-13T11:48:46.206Z,93956.78